Time;durP1;ratioP1;P1;durP2;ratioP2;P2;SDS_P1;SDS_P2;PMS_P1;PMS_P2;Temp;Humidity;BMP_temperature;BMP_pressure;BME280_temperature;BME280_humidity;BME280_pressure;Samples;Min_cycle;Max_cycle;Signal;HPM_P1;HPM_P2
2021/01/19 00:00:36;;;;;;;7.53;3.80;;;6.20;85.90;;;;;;5029582;28;20509;-51
2021/01/19 00:03:02;;;;;;;8.05;3.75;;;6.20;85.80;;;;;;5035069;28;20121;-51
2021/01/19 00:05:28;;;;;;;8.00;3.67;;;6.20;85.80;;;;;;5029831;28;20014;-51
2021/01/19 00:07:53;;;;;;;9.63;4.40;;;6.20;85.80;;;;;;5015158;28;20113;-51
2021/01/19 00:10:19;;;;;;;8.93;4.07;;;6.20;85.80;;;;;;5016277;28;20037;-51
2021/01/19 00:12:45;;;;;;;7.72;4.13;;;6.20;85.90;;;;;;5015231;28;20034;-51
2021/01/19 00:15:11;;;;;;;8.98;4.15;;;6.10;85.80;;;;;;5014889;28;20025;-51
2021/01/19 00:17:36;;;;;;;13.13;6.18;;;6.10;85.80;;;;;;5015110;28;20132;-52
2021/01/19 00:20:04;;;;;;;12.02;5.05;;;6.10;85.80;;;;;;5015199;28;20022;-51
2021/01/19 00:22:30;;;;;;;14.18;4.47;;;6.10;85.80;;;;;;5015773;28;20359;-51
2021/01/19 00:24:55;;;;;;;13.05;4.88;;;6.10;85.90;;;;;;5021959;28;20029;-52
2021/01/19 00:27:21;;;;;;;11.02;4.75;;;6.10;85.80;;;;;;5034806;28;20432;-51
2021/01/19 00:29:46;;;;;;;10.52;5.82;;;6.10;85.90;;;;;;5034484;28;20032;-51
2021/01/19 00:32:12;;;;;;;13.45;5.47;;;6.10;85.90;;;;;;5033085;28;20021;-51
2021/01/19 00:34:38;;;;;;;8.35;4.55;;;6.10;85.90;;;;;;5033106;28;20157;-51
2021/01/19 00:37:03;;;;;;;9.82;5.45;;;6.10;86.00;;;;;;5034365;28;20044;-51
2021/01/19 00:39:29;;;;;;;9.25;4.80;;;6.10;85.90;;;;;;5034810;28;20029;-51
2021/01/19 00:41:54;;;;;;;7.88;4.97;;;6.10;85.90;;;;;;5031003;28;20042;-52
2021/01/19 00:44:20;;;;;;;15.10;6.03;;;6.10;86.00;;;;;;5034099;28;20033;-51
2021/01/19 00:46:49;;;;;;;11.15;4.95;;;6.00;85.90;;;;;;5019660;28;20041;-51
2021/01/19 00:49:14;;;;;;;12.88;5.28;;;6.00;85.90;;;;;;5014717;28;20404;-51
2021/01/19 00:51:40;;;;;;;11.13;5.43;;;6.00;85.90;;;;;;5014332;28;20025;-51
2021/01/19 00:54:06;;;;;;;11.70;5.53;;;6.00;85.90;;;;;;5013931;28;20026;-51
2021/01/19 00:56:39;;;;;;;10.90;5.13;;;6.00;86.00;;;;;;5014415;28;20038;-51
2021/01/19 00:59:06;;;;;;;12.05;5.18;;;6.00;86.00;;;;;;5014585;28;20025;-51
2021/01/19 01:01:32;;;;;;;16.42;5.55;;;6.00;86.00;;;;;;5014488;28;20053;-51
2021/01/19 01:03:58;;;;;;;13.63;6.00;;;6.00;86.00;;;;;;5015079;28;20072;-51
2021/01/19 01:06:24;;;;;;;10.13;5.63;;;6.00;86.00;;;;;;5027070;28;20447;-51
2021/01/19 01:08:50;;;;;;;14.18;5.55;;;6.00;86.00;;;;;;5020035;28;20041;-51
2021/01/19 01:11:16;;;;;;;13.43;7.00;;;6.00;86.00;;;;;;5014303;28;20352;-51
2021/01/19 01:13:42;;;;;;;8.52;5.07;;;6.00;86.00;;;;;;5015043;28;20026;-51
2021/01/19 01:16:12;;;;;;;14.60;6.75;;;6.00;86.00;;;;;;5014058;28;20363;-51
2021/01/19 01:18:38;;;;;;;;;;;6.00;86.00;;;;;;5014446;28;20380;-51
2021/01/19 01:21:04;;;;;;;12.70;5.07;;;5.90;86.00;;;;;;5019617;28;19912;-51
2021/01/19 01:23:30;;;;;;;13.02;5.57;;;5.90;86.10;;;;;;5033474;28;20473;-51
2021/01/19 01:25:55;;;;;;;11.70;5.30;;;5.90;86.00;;;;;;5018775;28;20018;-51
2021/01/19 01:28:21;;;;;;;9.07;5.38;;;5.90;86.00;;;;;;5013955;28;20077;-51
2021/01/19 01:30:47;;;;;;;19.38;6.35;;;5.90;86.00;;;;;;5013927;28;20051;-51
2021/01/19 01:33:12;;;;;;;8.68;5.53;;;5.90;86.00;;;;;;5013687;28;20358;-51
2021/01/19 01:35:38;;;;;;;13.70;5.60;;;5.90;86.00;;;;;;5014958;28;20098;-51
2021/01/19 01:38:04;;;;;;;10.13;5.05;;;5.90;86.10;;;;;;5013678;28;20514;-51
2021/01/19 01:40:29;;;;;;;8.93;4.43;;;5.90;86.00;;;;;;5013557;28;20116;-51
2021/01/19 01:42:56;;;;;;;8.18;4.78;;;5.90;86.00;;;;;;5013544;28;20117;-51
2021/01/19 01:45:23;;;;;;;12.18;4.75;;;5.90;86.00;;;;;;5013552;28;20061;-51
2021/01/19 01:47:50;;;;;;;12.50;5.03;;;5.90;86.70;;;;;;5022023;28;20080;-51
2021/01/19 01:50:17;;;;;;;10.63;5.03;;;5.90;86.00;;;;;;5013868;28;20017;-51
2021/01/19 01:52:44;;;;;;;9.82;4.30;;;5.90;86.00;;;;;;5032731;28;20048;-51
2021/01/19 01:55:10;;;;;;;8.88;4.97;;;5.90;85.90;;;;;;5033104;28;20061;-51
2021/01/19 01:57:40;;;;;;;6.25;4.07;;;5.90;86.00;;;;;;5031513;28;20091;-51
2021/01/19 02:00:07;;;;;;;16.75;4.78;;;5.90;86.70;;;;;;5032021;28;20048;-51
2021/01/19 02:02:33;;;;;;;6.85;4.13;;;5.90;85.90;;;;;;5045162;28;20108;-51
2021/01/19 02:04:59;;;;;;;7.07;4.50;;;5.90;85.90;;;;;;5051779;28;20112;-51
2021/01/19 02:07:48;;;;;;;9.63;4.82;;;5.90;86.00;;;;;;5027456;28;20653;-51
2021/01/19 02:10:23;;;;;;;6.68;3.95;;;5.90;86.00;;;;;;5013340;28;20456;-51
2021/01/19 02:12:56;;;;;;;14.55;4.80;;;5.90;86.00;;;;;;5013224;28;20471;-51
2021/01/19 02:15:30;;;;;;;7.05;3.60;;;5.90;86.00;;;;;;5013265;28;20367;-51
2021/01/19 02:18:26;;;;;;;8.65;3.92;;;5.90;86.00;;;;;;5014623;28;20038;-51
2021/01/19 02:21:28;;;;;;;9.65;4.07;;;5.90;86.00;;;;;;5017427;28;20081;-51
2021/01/19 02:23:57;;;;;;;10.30;4.80;;;5.90;86.00;;;;;;5016977;28;20029;-51
2021/01/19 02:26:31;;;;;;;7.90;4.15;;;5.90;86.00;;;;;;5017718;28;20104;-51
2021/01/19 02:29:13;;;;;;;9.88;4.20;;;5.90;86.00;;;;;;5018378;28;20026;-51
2021/01/19 02:32:10;;;;;;;6.65;3.50;;;5.90;86.00;;;;;;5016925;28;20026;-51
2021/01/19 02:34:48;;;;;;;9.52;4.40;;;5.80;86.00;;;;;;5017005;28;20034;-51
2021/01/19 02:37:36;;;;;;;7.57;4.30;;;5.90;86.00;;;;;;5016947;28;20038;-52
2021/01/19 02:40:02;;;;;;;11.43;5.38;;;5.90;86.00;;;;;;5017877;28;20038;-51
2021/01/19 02:42:34;;;;;;;8.43;4.13;;;5.90;85.90;;;;;;5016810;28;20049;-51
2021/01/19 02:45:08;;;;;;;10.88;4.63;;;5.90;85.80;;;;;;5016699;28;20052;-51
2021/01/19 02:47:33;;;;;;;9.38;4.93;;;5.90;85.90;;;;;;5032300;28;20344;-51
2021/01/19 02:49:59;;;;;;;9.02;4.80;;;5.90;85.90;;;;;;5034962;28;20027;-51
2021/01/19 02:52:25;;;;;;;7.53;4.25;;;5.90;85.90;;;;;;5036302;28;20021;-51
2021/01/19 02:54:51;;;;;;;7.85;4.47;;;5.80;85.80;;;;;;5034603;28;20034;-51
2021/01/19 02:57:26;;;;;;;9.35;4.50;;;5.80;85.80;;;;;;5036511;28;20038;-51
2021/01/19 03:00:15;;;;;;;14.57;5.03;;;5.80;85.90;;;;;;5035012;28;20026;-51
2021/01/19 03:02:45;;;;;;;11.85;5.63;;;5.90;86.70;;;;;;5016510;28;20030;-51
2021/01/19 03:05:12;;;;;;;12.55;5.03;;;5.80;85.80;;;;;;5019252;28;20040;-52
2021/01/19 03:07:43;;;;;;;11.43;5.82;;;5.80;85.80;;;;;;5036416;28;20022;-52
2021/01/19 03:10:12;;;;;;;14.25;5.50;;;5.80;85.90;;;;;;5035501;28;20034;-51
2021/01/19 03:12:40;;;;;;;11.65;5.53;;;5.90;85.90;;;;;;5036224;28;20116;-51
2021/01/19 03:15:07;;;;;;;17.42;6.30;;;5.80;85.80;;;;;;5035463;28;20025;-51
2021/01/19 03:17:32;;;;;;;12.90;5.13;;;5.80;85.90;;;;;;5036343;28;20029;-51
2021/01/19 03:19:58;;;;;;;13.65;5.88;;;5.80;85.70;;;;;;5035885;28;20463;-51
2021/01/19 03:22:24;;;;;;;17.05;6.38;;;5.80;86.10;;;;;;5031244;28;20435;-51
2021/01/19 03:24:49;;;;;;;14.45;6.18;;;5.80;85.80;;;;;;5027714;28;20029;-51
2021/01/19 03:27:15;;;;;;;14.57;6.45;;;5.80;85.80;;;;;;5016329;28;20032;-51
2021/01/19 03:29:40;;;;;;;14.15;5.95;;;5.80;85.80;;;;;;5014973;28;20042;-51
2021/01/19 03:32:06;;;;;;;13.73;6.38;;;5.80;85.80;;;;;;5016727;28;20407;-51
2021/01/19 03:34:33;;;;;;;15.32;6.15;;;5.80;85.80;;;;;;5020408;28;20029;-51
2021/01/19 03:36:59;;;;;;;17.23;6.47;;;5.80;85.80;;;;;;5034762;28;20037;-51
2021/01/19 03:39:25;;;;;;;11.07;6.10;;;5.80;85.80;;;;;;5021792;28;20045;-52
2021/01/19 03:41:51;;;;;;;13.27;5.85;;;5.80;85.80;;;;;;5015786;28;20030;-51
2021/01/19 03:44:16;;;;;;;12.60;6.45;;;5.80;85.80;;;;;;5016562;28;20120;-51
2021/01/19 03:46:42;;;;;;;15.00;6.88;;;5.80;85.90;;;;;;5015722;28;20113;-51
2021/01/19 03:49:08;;;;;;;12.55;6.32;;;5.80;85.80;;;;;;5015885;28;20018;-51
2021/01/19 03:51:33;;;;;;;16.58;6.95;;;5.80;85.80;;;;;;5015715;28;20084;-51
2021/01/19 03:53:59;;;;;;;15.98;7.03;;;5.80;85.80;;;;;;5016397;28;20256;-51
2021/01/19 03:56:25;;;;;;;13.10;5.68;;;5.80;85.80;;;;;;5015731;28;20045;-51
2021/01/19 03:58:50;;;;;;;12.10;6.60;;;5.80;85.80;;;;;;5015558;28;20509;-51
2021/01/19 04:01:16;;;;;;;17.88;6.90;;;5.80;85.80;;;;;;5015394;28;20467;-51
2021/01/19 04:03:41;;;;;;;16.45;6.53;;;5.80;85.80;;;;;;5016415;28;20072;-52
2021/01/19 04:06:08;;;;;;;14.13;6.25;;;5.80;85.80;;;;;;5025857;28;20435;-51
2021/01/19 04:08:34;;;;;;;13.95;6.57;;;5.80;85.80;;;;;;5031266;28;20365;-51
2021/01/19 04:11:01;;;;;;;14.52;6.70;;;5.80;85.70;;;;;;5015401;28;20032;-51
2021/01/19 04:13:26;;;;;;;15.10;6.53;;;5.80;86.50;;;;;;5015169;28;20041;-51
2021/01/19 04:15:52;;;;;;;16.67;6.90;;;5.80;85.70;;;;;;5015921;28;20038;-51
2021/01/19 04:18:19;;;;;;;14.13;6.28;;;5.80;85.70;;;;;;5015259;28;20037;-51
2021/01/19 04:20:44;;;;;;;19.40;6.88;;;5.80;85.80;;;;;;5015165;28;20034;-51
2021/01/19 04:23:13;;;;;;;16.10;6.13;;;5.80;85.70;;;;;;5014956;28;20520;-51
2021/01/19 04:25:43;;;;;;;19.42;7.78;;;5.80;85.70;;;;;;5015799;28;20053;-51
2021/01/19 04:28:10;;;;;;;16.13;6.80;;;5.70;85.70;;;;;;5014853;28;20041;-51
2021/01/19 04:30:35;;;;;;;14.02;6.70;;;5.80;85.80;;;;;;5026991;28;20280;-51
2021/01/19 04:33:01;;;;;;;16.27;7.60;;;5.70;85.60;;;;;;5034871;28;20116;-52
2021/01/19 04:35:27;;;;;;;13.48;7.05;;;5.80;85.60;;;;;;5032191;28;20051;-51
2021/01/19 04:37:52;;;;;;;11.55;6.07;;;5.70;85.50;;;;;;5034720;28;20041;-52
2021/01/19 04:40:18;;;;;;;16.52;6.93;;;5.80;85.60;;;;;;5018310;28;20030;-52
2021/01/19 04:42:44;;;;;;;15.68;7.20;;;5.80;85.60;;;;;;5021515;28;20407;-51
2021/01/19 04:45:11;;;;;;;11.77;5.53;;;5.80;85.50;;;;;;5033917;28;20025;-52
2021/01/19 04:47:37;;;;;;;11.75;5.07;;;5.70;85.50;;;;;;5032493;28;20021;-52
2021/01/19 04:50:08;;;;;;;11.18;5.63;;;5.80;85.50;;;;;;5034527;28;20164;-51
2021/01/19 04:52:34;;;;;;;11.73;6.35;;;5.80;85.40;;;;;;5034631;28;20032;-52
2021/01/19 04:55:11;;;;;;;13.40;5.18;;;5.80;85.40;;;;;;5033893;28;20108;-52
2021/01/19 04:57:40;;;;;;;11.95;5.28;;;5.80;85.40;;;;;;5022286;28;20045;-52
2021/01/19 05:00:13;;;;;;;13.98;5.40;;;5.70;85.30;;;;;;5014376;28;20352;-52
2021/01/19 05:03:01;;;;;;;14.02;5.63;;;5.80;85.40;;;;;;5014572;28;20029;-51
2021/01/19 05:05:38;;;;;;;9.82;4.90;;;5.80;85.30;;;;;;5020004;28;20029;-52
2021/01/19 05:08:17;;;;;;;6.53;3.35;;;5.80;85.20;;;;;;5024046;28;20033;-52
2021/01/19 05:11:23;;;;;;;8.30;5.28;;;5.80;85.30;;;;;;5016991;28;20025;-52
2021/01/19 05:13:57;;;;;;;16.80;6.78;;;5.80;85.20;;;;;;5033087;28;20080;-51
2021/01/19 05:16:27;;;;;;;12.23;5.82;;;5.80;85.10;;;;;;5033386;28;20355;-51
2021/01/19 05:18:53;;;;;;;12.52;5.25;;;5.70;85.10;;;;;;5032452;28;20034;-52
2021/01/19 05:21:19;;;;;;;9.45;4.38;;;5.80;85.20;;;;;;5033651;28;20461;-52
2021/01/19 05:23:45;;;;;;;6.45;2.92;;;5.80;85.20;;;;;;5033655;28;20021;-52
2021/01/19 05:26:14;;;;;;;8.95;4.55;;;5.70;85.10;;;;;;5033965;28;20055;-52
2021/01/19 05:28:48;;;;;;;4.60;2.38;;;5.80;85.10;;;;;;5029971;28;20059;-52
2021/01/19 05:31:22;;;;;;;11.80;5.00;;;5.80;85.10;;;;;;5013807;28;20058;-52
2021/01/19 05:34:00;;;;;;;7.47;3.88;;;5.70;85.10;;;;;;5016514;28;20033;-52
2021/01/19 05:36:47;;;;;;;12.88;5.45;;;5.80;85.20;;;;;;5025087;28;20037;-52
2021/01/19 05:39:20;;;;;;;8.93;4.63;;;5.70;85.10;;;;;;5018196;28;20404;-52
2021/01/19 05:41:47;;;;;;;16.13;5.18;;;5.70;85.10;;;;;;5023576;28;20021;-52
2021/01/19 05:44:30;;;;;;;9.18;4.18;;;5.70;85.10;;;;;;5019198;28;20037;-52
2021/01/19 05:46:59;;;;;;;13.27;5.68;;;5.70;85.10;;;;;;5021007;28;20034;-52
2021/01/19 05:49:28;;;;;;;12.32;5.95;;;5.70;85.00;;;;;;5020335;28;20025;-52
2021/01/19 05:52:06;;;;;;;12.65;6.05;;;5.70;85.00;;;;;;5017914;28;20039;-52
2021/01/19 05:54:34;;;;;;;16.35;7.40;;;5.70;85.00;;;;;;5018287;28;20037;-52
2021/01/19 05:57:05;;;;;;;18.77;6.90;;;5.70;85.10;;;;;;5021198;28;20128;-52
2021/01/19 05:59:38;;;;;;;10.40;5.50;;;5.70;85.00;;;;;;5022011;28;20037;-52
2021/01/19 06:02:12;;;;;;;17.30;6.90;;;5.70;85.00;;;;;;5015889;28;20025;-52
2021/01/19 06:04:49;;;;;;;15.85;5.85;;;5.70;85.10;;;;;;5019862;28;20034;-52
2021/01/19 06:07:16;;;;;;;13.55;5.40;;;5.70;85.10;;;;;;5021515;28;20044;-51
2021/01/19 06:09:43;;;;;;;10.70;5.85;;;5.70;85.00;;;;;;5023720;28;20052;-52
2021/01/19 06:12:09;;;;;;;18.20;5.88;;;5.70;85.00;;;;;;5023961;28;20036;-51
2021/01/19 06:14:35;;;;;;;11.80;6.63;;;5.70;85.00;;;;;;5030915;28;20021;-51
2021/01/19 06:17:16;;;;;;;10.73;5.35;;;5.70;85.00;;;;;;5024515;28;20072;-51
2021/01/19 06:19:43;;;;;;;7.25;3.63;;;5.70;85.00;;;;;;5013539;28;20025;-52
2021/01/19 06:22:14;;;;;;;12.98;5.75;;;5.70;84.90;;;;;;5014394;28;20057;-52
2021/01/19 06:24:42;;;;;;;13.52;6.28;;;5.70;85.00;;;;;;5021523;28;20539;-52
2021/01/19 06:27:10;;;;;;;12.23;5.38;;;5.70;84.80;;;;;;5032817;28;20109;-52
2021/01/19 06:29:36;;;;;;;15.70;6.50;;;5.70;84.80;;;;;;5032918;28;20340;-52
2021/01/19 06:32:05;;;;;;;13.48;6.18;;;5.70;84.80;;;;;;5024268;28;20116;-52
2021/01/19 06:34:33;;;;;;;13.90;5.85;;;5.70;84.70;;;;;;5032549;28;20153;-52
2021/01/19 06:37:00;;;;;;;17.67;7.13;;;5.70;84.60;;;;;;5031637;28;20125;-52
2021/01/19 06:39:34;;;;;;;14.50;7.38;;;5.70;84.60;;;;;;5032880;28;20033;-52
2021/01/19 06:42:07;;;;;;;15.98;6.57;;;5.70;84.50;;;;;;5032532;28;20062;-52
2021/01/19 06:44:36;;;;;;;9.70;3.97;;;5.80;84.50;;;;;;5015885;28;20471;-52
2021/01/19 06:47:03;;;;;;;12.30;6.60;;;5.80;84.50;;;;;;5013024;28;20034;-52
2021/01/19 06:49:32;;;;;;;15.02;7.18;;;5.70;84.40;;;;;;5013231;28;20026;-52
2021/01/19 06:52:04;;;;;;;12.57;5.70;;;5.80;84.40;;;;;;5012949;28;20243;-52
2021/01/19 06:54:50;;;;;;;0.70;0.70;;;5.80;84.40;;;;;;5013999;28;20116;-52
2021/01/19 06:57:40;;;;;;;17.83;6.05;;;5.80;84.30;;;;;;5012802;28;20045;-52
2021/01/19 07:00:18;;;;;;;7.93;4.15;;;5.80;84.30;;;;;;5012995;28;20034;-52
2021/01/19 07:02:45;;;;;;;10.18;5.80;;;5.80;84.30;;;;;;5012588;28;20037;-52
2021/01/19 07:05:12;;;;;;;7.00;4.00;;;5.80;84.30;;;;;;5026337;28;20038;-52
2021/01/19 07:07:54;;;;;;;7.70;4.47;;;5.80;84.30;;;;;;5016705;28;20022;-52
2021/01/19 07:10:42;;;;;;;15.73;6.43;;;5.90;84.30;;;;;;5016646;28;20448;-52
2021/01/19 07:13:13;;;;;;;11.20;4.38;;;5.80;84.20;;;;;;5016332;28;20037;-52
2021/01/19 07:16:05;;;;;;;4.68;2.67;;;5.90;84.30;;;;;;5017372;28;20041;-52
2021/01/19 07:18:42;;;;;;;9.57;3.95;;;5.90;84.30;;;;;;5016270;28;20117;-52
2021/01/19 07:21:12;;;;;;;1.60;1.30;;;5.90;84.30;;;;;;5016251;28;20474;-52
2021/01/19 07:23:41;;;;;;;;;;;5.90;84.20;;;;;;5016359;28;20030;-52
2021/01/19 07:26:06;;;;;;;8.00;4.45;;;5.90;84.10;;;;;;5017207;28;19948;-52
2021/01/19 07:28:32;;;;;;;10.25;4.90;;;5.90;84.10;;;;;;5016308;28;20494;-52
2021/01/19 07:30:59;;;;;;;12.85;6.60;;;5.90;84.10;;;;;;5026913;28;20021;-52
2021/01/19 07:33:25;;;;;;;3.22;2.13;;;5.90;84.00;;;;;;5036138;28;20086;-52
2021/01/19 07:35:51;;;;;;;9.25;4.28;;;5.90;84.00;;;;;;5033702;28;20035;-52
2021/01/19 07:38:23;;;;;;;12.00;5.65;;;5.90;84.00;;;;;;5035534;28;20037;-52
2021/01/19 07:40:49;;;;;;;11.70;3.72;;;5.90;84.00;;;;;;5035661;28;20108;-51
2021/01/19 07:43:16;;;;;;;5.85;3.20;;;6.00;84.10;;;;;;5035494;28;20455;-52
2021/01/19 07:45:55;;;;;;;9.45;5.10;;;6.00;84.10;;;;;;5035306;28;20466;-52
2021/01/19 07:48:31;;;;;;;10.27;4.07;;;6.00;83.90;;;;;;5033645;28;20079;-52
2021/01/19 07:51:11;;;;;;;12.50;5.15;;;6.00;83.90;;;;;;5035292;28;20079;-52
2021/01/19 07:53:55;;;;;;;5.57;3.17;;;6.00;83.80;;;;;;5022573;28;20029;-52
2021/01/19 07:56:29;;;;;;;10.68;4.22;;;6.00;83.80;;;;;;5017890;28;20045;-52
2021/01/19 07:58:56;;;;;;;1.50;1.33;;;6.00;83.80;;;;;;5021803;28;20096;-53
2021/01/19 08:01:34;;;;;;;10.35;3.83;;;6.00;83.70;;;;;;5025091;28;20375;-52
2021/01/19 08:04:13;;;;;;;6.82;2.83;;;6.10;83.80;;;;;;5026235;28;20455;-52
2021/01/19 08:06:40;;;;;;;9.82;4.15;;;6.10;83.70;;;;;;5014944;28;20034;-52
2021/01/19 08:09:13;;;;;;;8.23;3.58;;;6.10;83.70;;;;;;5026488;28;20017;-52
2021/01/19 08:11:40;;;;;;;7.82;4.18;;;6.10;83.70;;;;;;5026345;28;20044;-52
2021/01/19 08:14:06;;;;;;;0.30;0.30;;;6.10;83.60;;;;;;5020405;28;20026;-52
2021/01/19 08:16:33;;;;;;;7.88;3.88;;;6.10;83.50;;;;;;5013724;28;20036;-52
2021/01/19 08:19:10;;;;;;;2.75;1.63;;;6.10;83.50;;;;;;5023385;28;20483;-52
2021/01/19 08:21:41;;;;;;;13.38;3.50;;;6.10;83.40;;;;;;5034221;28;20025;-52
2021/01/19 08:24:08;;;;;;;4.57;2.60;;;6.10;83.30;;;;;;5033823;28;20348;-52
2021/01/19 08:26:35;;;;;;;0.52;0.50;;;6.10;83.30;;;;;;5034271;28;20048;-51
2021/01/19 08:29:03;;;;;;;10.18;5.05;;;6.20;83.30;;;;;;5031157;28;20399;-52
2021/01/19 08:31:30;;;;;;;10.38;2.83;;;6.20;83.20;;;;;;5014817;28;20451;-52
2021/01/19 08:34:00;;;;;;;8.70;4.53;;;6.20;83.20;;;;;;5029141;28;20033;-52
2021/01/19 08:36:27;;;;;;;6.75;3.83;;;6.20;83.20;;;;;;5016763;28;20083;-52
2021/01/19 08:38:55;;;;;;;9.43;4.63;;;6.20;83.10;;;;;;5025598;28;20034;-52
2021/01/19 08:41:21;;;;;;;1.95;1.52;;;6.20;83.00;;;;;;5017277;28;20026;-52
2021/01/19 08:44:06;;;;;;;8.98;3.42;;;6.20;83.00;;;;;;5014948;28;20446;-51
2021/01/19 08:46:32;;;;;;;4.90;3.10;;;6.20;82.90;;;;;;5030978;28;20069;-52
2021/01/19 08:49:03;;;;;;;4.82;1.08;;;6.30;83.00;;;;;;5034642;28;20032;-52
2021/01/19 08:51:29;;;;;;;7.32;4.25;;;6.20;83.00;;;;;;5021449;28;20060;-52
2021/01/19 08:53:55;;;;;;;11.02;5.70;;;6.20;82.90;;;;;;5028907;28;20116;-52
2021/01/19 08:56:23;;;;;;;12.48;5.05;;;6.20;82.80;;;;;;5013777;28;20061;-52
2021/01/19 08:58:49;;;;;;;4.30;2.42;;;6.30;82.90;;;;;;5014371;28;20045;-52
2021/01/19 09:01:15;;;;;;;14.30;4.60;;;6.30;82.90;;;;;;5018780;28;20029;-52
2021/01/19 09:03:41;;;;;;;4.22;2.67;;;6.30;82.90;;;;;;5020338;28;20029;-52
2021/01/19 09:06:13;;;;;;;7.75;3.35;;;6.30;82.80;;;;;;5015679;28;20026;-52
2021/01/19 09:08:41;;;;;;;15.77;6.65;;;6.30;82.80;;;;;;5034005;28;20061;-52
2021/01/19 09:11:10;;;;;;;7.60;4.65;;;6.30;82.70;;;;;;5033645;28;20463;-52
2021/01/19 09:13:39;;;;;;;7.60;4.70;;;6.30;82.70;;;;;;5032551;28;20033;-52
2021/01/19 09:16:06;;;;;;;8.50;3.00;;;6.40;82.70;;;;;;5028364;28;20037;-52
2021/01/19 09:18:32;;;;;;;8.25;5.13;;;6.40;82.70;;;;;;5033044;28;20056;-52
2021/01/19 09:21:10;;;;;;;9.32;4.43;;;6.40;82.70;;;;;;5034003;28;20075;-52
2021/01/19 09:23:37;;;;;;;5.93;2.92;;;6.40;82.60;;;;;;5032017;28;20053;-52
2021/01/19 09:26:08;;;;;;;12.80;5.78;;;6.40;82.50;;;;;;5030229;28;20695;-52
2021/01/19 09:28:35;;;;;;;3.15;1.98;;;6.40;82.40;;;;;;5021069;28;20068;-52
2021/01/19 09:31:16;;;;;;;6.28;4.15;;;6.40;82.40;;;;;;5013965;28;20084;-52
2021/01/19 09:33:52;;;;;;;17.30;6.80;;;6.50;82.60;;;;;;5022317;28;20030;-52
2021/01/19 09:36:19;;;;;;;1.83;1.70;;;6.50;82.60;;;;;;5028572;28;20037;-52
2021/01/19 09:38:47;;;;;;;3.70;2.65;;;6.50;82.50;;;;;;5013406;28;20037;-52
2021/01/19 09:41:15;;;;;;;4.97;3.63;;;6.50;83.20;;;;;;5033317;28;20034;-52
2021/01/19 09:43:45;;;;;;;6.68;3.15;;;6.50;82.40;;;;;;5031669;28;20542;-52
2021/01/19 09:46:10;;;;;;;10.93;4.07;;;6.60;82.50;;;;;;5026253;28;20124;-52
2021/01/19 09:48:37;;;;;;;5.13;3.22;;;6.60;82.60;;;;;;5032449;28;20072;-52
2021/01/19 09:51:06;;;;;;;5.93;3.20;;;6.60;82.40;;;;;;5031316;28;20026;-52
2021/01/19 09:53:33;;;;;;;8.90;3.33;;;6.60;82.40;;;;;;5030060;28;20029;-52
2021/01/19 09:56:16;;;;;;;10.40;5.47;;;6.70;82.40;;;;;;5028539;28;20033;-52
2021/01/19 09:58:42;;;;;;;0.68;0.68;;;6.60;82.30;;;;;;5017552;28;20026;-52
2021/01/19 10:01:08;;;;;;;1.38;0.93;;;6.70;82.30;;;;;;5013388;28;20028;-52
2021/01/19 10:03:35;;;;;;;11.13;6.28;;;6.70;82.30;;;;;;5013482;28;20021;-52
2021/01/19 10:06:10;;;;;;;10.43;4.20;;;6.70;82.30;;;;;;5013877;28;20022;-52
2021/01/19 10:08:38;;;;;;;5.55;2.85;;;6.70;82.30;;;;;;5013204;28;20022;-52
2021/01/19 10:11:04;;;;;;;8.65;3.75;;;6.80;82.20;;;;;;5013562;28;20336;-52
2021/01/19 10:13:32;;;;;;;11.95;4.07;;;6.80;82.10;;;;;;5013153;28;20029;-52
2021/01/19 10:16:02;;;;;;;3.75;2.10;;;6.80;82.00;;;;;;5013819;28;20061;-52
2021/01/19 10:18:29;;;;;;;1.05;1.05;;;6.80;81.90;;;;;;5012998;28;20117;-52
2021/01/19 10:20:55;;;;;;;0.95;0.90;;;6.80;82.00;;;;;;5013037;28;20037;-52
2021/01/19 10:23:30;;;;;;;5.97;4.22;;;6.80;82.20;;;;;;5013132;28;20029;-52
2021/01/19 10:26:28;;;;;;;8.15;4.05;;;6.80;82.10;;;;;;5019382;28;20030;-52
2021/01/19 10:28:56;;;;;;;11.23;5.47;;;6.80;82.10;;;;;;5011323;28;20030;-52
2021/01/19 10:31:26;;;;;;;2.00;0.93;;;6.80;82.10;;;;;;5027468;28;20068;-52
2021/01/19 10:33:56;;;;;;;2.25;2.05;;;6.80;82.10;;;;;;5024008;28;20194;-52
2021/01/19 10:36:23;;;;;;;;;;;6.80;82.10;;;;;;5013845;28;20037;-52
2021/01/19 10:38:48;;;;;;;10.52;5.55;;;6.80;82.20;;;;;;5015585;28;19920;-52
2021/01/19 10:41:25;;;;;;;3.67;1.77;;;6.80;82.20;;;;;;5030827;28;20030;-52
2021/01/19 10:43:52;;;;;;;9.93;5.18;;;6.80;82.30;;;;;;5028771;28;20037;-52
2021/01/19 10:46:22;;;;;;;5.18;2.60;;;6.90;82.20;;;;;;5029534;28;20029;-52
2021/01/19 10:49:09;;;;;;;8.63;4.68;;;6.90;82.10;;;;;;5025866;28;20060;-52
2021/01/19 10:51:36;;;;;;;1.55;1.15;;;6.90;82.10;;;;;;5016716;28;20363;-52
2021/01/19 10:54:08;;;;;;;8.23;4.30;;;6.90;81.90;;;;;;5023729;28;20021;-52
2021/01/19 10:56:35;;;;;;;5.97;3.50;;;6.90;81.90;;;;;;5029718;28;20037;-52
2021/01/19 10:59:01;;;;;;;4.93;3.25;;;6.90;81.80;;;;;;5022217;28;20053;-52
2021/01/19 11:01:27;;;;;;;5.75;3.60;;;6.90;82.00;;;;;;5018003;28;20359;-52
2021/01/19 11:03:54;;;;;;;9.95;3.58;;;6.90;82.00;;;;;;5029453;28;20029;-52
2021/01/19 11:06:20;;;;;;;16.02;5.90;;;6.90;82.00;;;;;;5021614;28;20133;-52
2021/01/19 11:08:46;;;;;;;5.90;3.33;;;6.90;82.00;;;;;;5024087;28;20086;-52
2021/01/19 11:11:12;;;;;;;5.85;2.38;;;6.90;82.90;;;;;;5033844;28;20032;-52
2021/01/19 11:13:38;;;;;;;8.90;5.55;;;7.00;82.20;;;;;;5016399;28;20036;-52
2021/01/19 11:16:05;;;;;;;12.32;5.40;;;6.90;82.10;;;;;;5017087;28;20026;-51
2021/01/19 11:18:31;;;;;;;13.55;6.18;;;7.00;82.30;;;;;;5015908;28;20276;-52
2021/01/19 11:20:57;;;;;;;2.83;1.90;;;7.00;82.10;;;;;;5015627;28;20536;-52
2021/01/19 11:23:22;;;;;;;9.05;4.85;;;7.00;82.10;;;;;;5025729;28;20033;-52
2021/01/19 11:25:48;;;;;;;5.78;3.30;;;7.00;82.80;;;;;;5029528;28;20461;-52
2021/01/19 11:28:14;;;;;;;9.70;5.53;;;7.00;82.10;;;;;;5035888;28;20333;-52
2021/01/19 11:30:40;;;;;;;10.40;5.53;;;7.00;82.00;;;;;;5029458;28;20059;-51
2021/01/19 11:33:05;;;;;;;9.00;5.03;;;7.00;82.10;;;;;;5034350;28;20018;-52
2021/01/19 11:35:35;;;;;;;6.45;3.70;;;7.00;82.10;;;;;;5028768;28;20049;-52
2021/01/19 11:38:02;;;;;;;0.30;0.30;;;7.00;82.10;;;;;;5024613;28;20045;-52
2021/01/19 11:40:28;;;;;;;1.08;0.88;;;7.00;82.10;;;;;;5030208;28;20493;-52
2021/01/19 11:42:53;;;;;;;10.00;5.47;;;7.00;82.00;;;;;;5022069;28;20030;-51
2021/01/19 11:45:19;;;;;;;4.22;2.88;;;7.00;82.10;;;;;;5019992;28;20048;-52
2021/01/19 11:47:45;;;;;;;5.28;3.00;;;7.00;81.90;;;;;;5023360;28;20395;-52
2021/01/19 11:50:11;;;;;;;3.40;1.58;;;7.10;82.00;;;;;;5020324;28;20072;-52
2021/01/19 11:52:36;;;;;;;0.52;0.52;;;7.00;82.10;;;;;;5023708;28;20053;-52
2021/01/19 11:55:03;;;;;;;7.95;3.03;;;7.10;82.20;;;;;;5025252;28;20458;-52
2021/01/19 11:57:28;;;;;;;11.88;4.80;;;7.00;82.10;;;;;;5023054;28;20037;-52
2021/01/19 11:59:54;;;;;;;3.78;2.15;;;7.10;82.10;;;;;;5023387;28;20037;-51
2021/01/19 12:02:19;;;;;;;9.05;4.93;;;7.00;82.10;;;;;;5012645;28;20038;-52
2021/01/19 12:04:46;;;;;;;9.10;3.65;;;7.10;82.20;;;;;;5025521;28;20046;-52
2021/01/19 12:07:12;;;;;;;8.55;3.22;;;7.10;82.20;;;;;;5026326;28;20037;-52
2021/01/19 12:09:37;;;;;;;10.57;4.75;;;7.10;82.20;;;;;;5034096;28;20029;-52
2021/01/19 12:12:05;;;;;;;10.82;5.10;;;7.10;82.40;;;;;;5024506;28;20060;-52
2021/01/19 12:14:30;;;;;;;8.52;4.25;;;7.10;82.30;;;;;;5033333;28;20079;-52
2021/01/19 12:16:58;;;;;;;8.63;3.55;;;7.10;82.20;;;;;;5033871;28;20033;-52
2021/01/19 12:19:24;;;;;;;2.85;1.42;;;7.10;82.20;;;;;;5033346;28;20021;-52
2021/01/19 12:21:51;;;;;;;5.38;2.47;;;7.10;82.30;;;;;;5034424;28;20045;-52
2021/01/19 12:24:18;;;;;;;1.25;1.17;;;7.10;82.20;;;;;;5014623;28;20030;-52
2021/01/19 12:26:45;;;;;;;8.40;5.00;;;7.10;82.30;;;;;;5027338;28;20095;-52
2021/01/19 12:29:11;;;;;;;7.03;2.33;;;7.10;82.20;;;;;;5024055;28;20455;-52
2021/01/19 12:31:37;;;;;;;12.57;5.40;;;7.10;82.30;;;;;;5015021;28;20021;-52
2021/01/19 12:34:03;;;;;;;13.50;4.30;;;7.10;82.30;;;;;;5026582;28;20029;-52
2021/01/19 12:36:29;;;;;;;11.00;5.38;;;7.10;82.10;;;;;;5031063;28;20025;-52
2021/01/19 12:38:54;;;;;;;8.73;4.25;;;7.20;82.10;;;;;;5023092;28;20120;-52
2021/01/19 12:41:20;;;;;;;7.40;4.72;;;7.20;82.00;;;;;;5034724;28;20413;-52
2021/01/19 12:43:45;;;;;;;13.55;4.97;;;7.10;81.90;;;;;;5031054;28;20022;-52
2021/01/19 12:46:12;;;;;;;3.92;2.47;;;7.10;81.90;;;;;;5022612;28;20436;-52
2021/01/19 12:48:38;;;;;;;7.50;4.28;;;7.20;81.80;;;;;;5022157;28;20486;-52
2021/01/19 12:51:14;;;;;;;3.45;2.05;;;7.20;81.80;;;;;;5024302;28;20041;-53
2021/01/19 12:53:41;;;;;;;7.68;4.10;;;7.20;81.90;;;;;;5022720;28;20069;-52
2021/01/19 12:56:11;;;;;;;4.00;1.83;;;7.10;82.00;;;;;;5020550;28;20045;-52
2021/01/19 12:58:37;;;;;;;2.55;1.20;;;7.10;82.00;;;;;;5017896;28;20324;-52
2021/01/19 13:01:03;;;;;;;7.43;3.25;;;7.10;82.00;;;;;;5024128;28;20080;-52
2021/01/19 13:03:29;;;;;;;9.85;3.78;;;7.10;82.00;;;;;;5017805;28;20026;-52